Time;durP1;ratioP1;P1;durP2;ratioP2;P2;SDS_P1;SDS_P2;PMS_P1;PMS_P2;Temp;Humidity;BMP_temperature;BMP_pressure;BME280_temperature;BME280_humidity;BME280_pressure;Samples;Min_cycle;Max_cycle;Signal;HPM_P1;HPM_P2
2022/09/03 00:00:24;;;;;;;20.17;14.98;;;22.40;99.90;;;;;;5087673;28;20198;-71
2022/09/03 00:03:33;;;;;;;19.67;15.70;;;22.50;99.90;;;;;;5072432;28;20667;-71
2022/09/03 00:06:27;;;;;;;18.10;14.80;;;22.50;99.90;;;;;;5064225;28;20187;-71
2022/09/03 00:09:22;;;;;;;17.85;16.02;;;22.40;99.90;;;;;;5070909;28;20200;-71
2022/09/03 00:12:08;;;;;;;17.30;15.60;;;22.40;99.90;;;;;;5072454;28;20175;-71
2022/09/03 00:14:46;;;;;;;16.38;14.75;;;22.40;99.90;;;;;;5089945;27;20198;-71
2022/09/03 00:17:26;;;;;;;21.60;15.00;;;22.40;99.90;;;;;;5071818;28;20665;-71
2022/09/03 00:20:02;;;;;;;17.65;15.63;;;22.40;99.90;;;;;;5074529;28;20228;-71
2022/09/03 00:22:43;;;;;;;16.40;14.80;;;22.40;99.90;;;;;;5089427;28;20720;-71
2022/09/03 00:25:23;;;;;;;19.10;15.75;;;22.40;99.90;;;;;;5088059;28;20206;-71
2022/09/03 00:27:57;;;;;;;16.48;14.70;;;22.30;99.90;;;;;;5091071;28;20182;-71
2022/09/03 00:30:25;;;;;;;19.60;15.80;;;22.20;99.90;;;;;;5091202;28;20181;-71
2022/09/03 00:33:13;;;;;;;17.63;15.75;;;22.30;99.90;;;;;;5091649;28;20186;-71
2022/09/03 00:36:01;;;;;;;24.30;15.45;;;22.20;99.90;;;;;;5124326;28;20203;-71
2022/09/03 00:38:32;;;;;;;18.30;15.10;;;22.20;99.90;;;;;;5098432;28;20202;-71
2022/09/03 00:41:06;;;;;;;17.40;15.00;;;22.30;99.90;;;;;;5087746;28;20482;-71
2022/09/03 00:43:49;;;;;;;22.63;16.25;;;22.20;99.90;;;;;;5091089;28;20634;-71
2022/09/03 00:46:41;;;;;;;19.30;15.63;;;22.20;99.90;;;;;;5075785;28;20265;-71
2022/09/03 00:49:36;;;;;;;17.80;15.18;;;22.20;99.90;;;;;;5090758;28;20236;-71
2022/09/03 00:52:18;;;;;;;21.10;15.98;;;22.20;99.90;;;;;;5089374;28;20182;-71
2022/09/03 00:54:57;;;;;;;17.38;15.43;;;22.10;99.90;;;;;;5102074;28;20259;-71
2022/09/03 00:57:52;;;;;;;19.75;14.93;;;22.10;99.90;;;;;;5070225;28;20245;-71
2022/09/03 01:00:20;;;;;;;17.98;15.48;;;22.00;99.90;;;;;;5086935;28;20174;-71
2022/09/03 01:03:13;;;;;;;19.42;16.23;;;22.10;99.90;;;;;;5084798;28;20182;-71
2022/09/03 01:06:02;;;;;;;17.73;15.25;;;22.10;99.90;;;;;;5103454;28;20183;-71
2022/09/03 01:08:49;;;;;;;20.33;15.75;;;22.00;99.90;;;;;;5070166;28;20183;-70
2022/09/03 01:11:19;;;;;;;20.13;16.27;;;22.00;99.90;;;;;;5068960;28;20189;-71
2022/09/03 01:14:18;;;;;;;21.08;17.02;;;22.10;99.90;;;;;;5070341;28;20182;-71
2022/09/03 01:17:39;;;;;;;19.43;15.93;;;22.00;99.90;;;;;;5013839;28;1607866;-71
2022/09/03 01:20:27;;;;;;;18.45;16.25;;;22.00;99.90;;;;;;5067938;28;20232;-71
2022/09/03 01:23:40;;;;;;;21.38;15.85;;;22.00;99.90;;;;;;5103027;28;20190;-71
2022/09/03 01:26:28;;;;;;;17.92;16.20;;;22.00;99.90;;;;;;5088152;28;20182;-71
2022/09/03 01:29:21;;;;;;;17.98;16.08;;;21.90;99.90;;;;;;5106521;28;20178;-70
2022/09/03 01:32:18;;;;;;;17.25;15.48;;;21.90;99.90;;;;;;5110774;27;20658;-70
2022/09/03 01:34:56;;;;;;;17.77;16.02;;;21.80;99.90;;;;;;5143857;27;20487;-70
2022/09/03 01:38:06;;;;;;;19.60;16.08;;;21.80;99.90;;;;;;5124813;27;20209;-70
2022/09/03 01:40:57;;;;;;;19.40;16.33;;;21.80;99.90;;;;;;5092680;28;20257;-70
2022/09/03 01:43:50;;;;;;;18.30;16.40;;;21.80;99.90;;;;;;5069050;28;20198;-70
2022/09/03 01:46:35;;;;;;;24.75;16.13;;;21.80;99.90;;;;;;5068451;28;20225;-71
2022/09/03 01:49:22;;;;;;;20.48;16.17;;;21.70;99.90;;;;;;5068699;28;20183;-70
2022/09/03 01:52:17;;;;;;;17.98;16.02;;;21.70;99.90;;;;;;5095022;28;20186;-71
2022/09/03 01:55:45;;;;;;;21.60;15.23;;;21.60;99.90;;;;;;5105954;28;20861;-70
2022/09/03 01:58:32;;;;;;;19.42;15.95;;;21.60;99.90;;;;;;5041068;28;20230;-71
2022/09/03 02:01:13;;;;;;;23.50;16.08;;;21.70;99.90;;;;;;5102824;28;20210;-70
2022/09/03 02:03:44;;;;;;;19.10;16.08;;;21.70;99.90;;;;;;5070371;28;20183;-71
2022/09/03 02:06:11;;;;;;;18.35;16.63;;;21.70;99.90;;;;;;5068561;28;20191;-71
2022/09/03 02:08:39;;;;;;;19.25;16.80;;;21.60;99.90;;;;;;5068305;28;20215;-71
2022/09/03 02:11:09;;;;;;;18.63;16.02;;;21.60;99.90;;;;;;5069491;28;20190;-71
2022/09/03 02:13:48;;;;;;;19.02;17.15;;;21.60;99.90;;;;;;5070810;28;20194;-71
2022/09/03 02:16:30;;;;;;;20.58;16.45;;;21.70;99.90;;;;;;5102222;28;20181;-71
2022/09/03 02:19:09;;;;;;;19.30;17.33;;;21.70;99.90;;;;;;5069172;28;20257;-71
2022/09/03 02:21:46;;;;;;;21.77;16.92;;;21.70;99.90;;;;;;5105857;28;20174;-71
2022/09/03 02:24:12;;;;;;;19.73;17.63;;;21.70;99.90;;;;;;5088934;28;20216;-71
2022/09/03 02:26:40;;;;;;;19.90;17.15;;;21.70;99.90;;;;;;5089784;28;20166;-71
2022/09/03 02:29:08;;;;;;;20.33;17.13;;;21.60;99.90;;;;;;5089608;28;20185;-71
2022/09/03 02:31:38;;;;;;;19.58;17.50;;;21.60;99.90;;;;;;5085386;28;20316;-71
2022/09/03 02:34:04;;;;;;;22.13;18.02;;;21.60;99.90;;;;;;5089880;28;20242;-71
2022/09/03 02:36:38;;;;;;;19.60;16.95;;;21.60;99.90;;;;;;5071515;28;20304;-71
2022/09/03 02:39:05;;;;;;;20.03;16.93;;;21.60;99.90;;;;;;5088651;28;20193;-71
2022/09/03 02:41:33;;;;;;;21.70;18.13;;;21.60;99.90;;;;;;5089783;28;20189;-71
2022/09/03 02:44:06;;;;;;;22.45;17.88;;;21.60;99.90;;;;;;5089416;28;20227;-71
2022/09/03 02:46:42;;;;;;;22.70;18.42;;;21.60;99.90;;;;;;5088200;28;20198;-71
2022/09/03 02:49:08;;;;;;;22.03;18.73;;;21.60;99.90;;;;;;5105062;28;20580;-71
2022/09/03 02:51:42;;;;;;;22.42;19.50;;;21.60;99.90;;;;;;5100952;28;20182;-71
2022/09/03 02:54:12;;;;;;;22.85;19.38;;;21.50;99.90;;;;;;5088884;28;20247;-71
2022/09/03 02:56:39;;;;;;;22.63;19.52;;;21.60;99.90;;;;;;5089636;28;20178;-71
2022/09/03 02:59:08;;;;;;;22.60;19.48;;;21.60;99.90;;;;;;5088094;28;20178;-71
2022/09/03 03:01:36;;;;;;;21.55;19.52;;;21.50;99.90;;;;;;5089772;28;20663;-71
2022/09/03 03:04:03;;;;;;;20.60;18.60;;;21.50;99.90;;;;;;5089778;28;20186;-71
2022/09/03 03:06:29;;;;;;;22.30;20.05;;;21.50;99.90;;;;;;5109474;28;20275;-71
2022/09/03 03:08:56;;;;;;;21.75;19.45;;;21.50;99.90;;;;;;5109700;28;20177;-71
2022/09/03 03:11:24;;;;;;;21.50;19.33;;;21.50;99.90;;;;;;5107888;28;20186;-71
2022/09/03 03:13:51;;;;;;;22.70;20.27;;;21.50;99.90;;;;;;5091544;28;20188;-71
2022/09/03 03:16:18;;;;;;;24.23;21.67;;;21.50;99.90;;;;;;5109654;28;20539;-71
2022/09/03 03:18:45;;;;;;;22.65;20.63;;;21.50;99.90;;;;;;5091211;28;20217;-71
2022/09/03 03:21:16;;;;;;;23.08;19.85;;;21.50;99.90;;;;;;5094104;28;20265;-71
2022/09/03 03:23:43;;;;;;;23.67;21.10;;;21.50;99.90;;;;;;5085358;28;20190;-71
2022/09/03 03:26:14;;;;;;;27.48;21.92;;;21.50;99.90;;;;;;5121786;27;20587;-71
2022/09/03 03:28:41;;;;;;;22.65;20.45;;;21.40;99.90;;;;;;5088062;28;20227;-71
2022/09/03 03:31:09;;;;;;;24.42;22.08;;;21.50;99.90;;;;;;5087404;28;20190;-71
2022/09/03 03:33:36;;;;;;;24.13;21.73;;;21.50;99.90;;;;;;5121435;28;20227;-71
2022/09/03 03:36:13;;;;;;;23.20;20.85;;;21.60;99.90;;;;;;5121511;27;20551;-71
2022/09/03 03:38:41;;;;;;;24.98;22.30;;;21.50;99.90;;;;;;5116642;28;20219;-71
2022/09/03 03:41:21;;;;;;;24.60;22.20;;;21.30;99.90;;;;;;5101650;28;20186;-71
2022/09/03 03:43:51;;;;;;;24.60;22.20;;;21.30;99.90;;;;;;5069171;28;20648;-71
2022/09/03 03:46:18;;;;;;;24.98;22.45;;;21.30;99.90;;;;;;5067153;28;20179;-71
2022/09/03 03:48:48;;;;;;;27.52;23.52;;;21.40;99.90;;;;;;5101327;28;20193;-71
2022/09/03 03:51:15;;;;;;;25.23;21.35;;;21.30;99.90;;;;;;5087637;28;20186;-71
2022/09/03 03:53:41;;;;;;;24.58;22.20;;;21.30;99.90;;;;;;5121823;28;20643;-71
2022/09/03 03:56:12;;;;;;;25.65;23.05;;;21.30;99.90;;;;;;5088396;28;20198;-71
2022/09/03 03:58:42;;;;;;;24.58;22.13;;;21.40;99.90;;;;;;5104327;28;20688;-71
2022/09/03 04:01:16;;;;;;;26.63;23.45;;;21.40;99.90;;;;;;5091372;28;20536;-71
2022/09/03 04:03:43;;;;;;;26.92;24.13;;;21.40;99.90;;;;;;5125851;27;20178;-71
2022/09/03 04:06:14;;;;;;;27.13;24.35;;;21.50;99.90;;;;;;5125788;27;20189;-71
2022/09/03 04:08:43;;;;;;;26.52;24.02;;;21.50;99.90;;;;;;5125699;27;20217;-71
2022/09/03 04:11:13;;;;;;;26.98;24.38;;;21.60;99.90;;;;;;5092258;28;20688;-71
2022/09/03 04:13:42;;;;;;;26.83;23.92;;;21.60;99.90;;;;;;5093151;28;20205;-71
2022/09/03 04:16:14;;;;;;;28.27;24.95;;;21.60;99.90;;;;;;5092853;28;20182;-71
2022/09/03 04:18:41;;;;;;;26.90;24.38;;;21.60;99.90;;;;;;5092119;28;20221;-71
2022/09/03 04:21:14;;;;;;;28.40;25.40;;;21.70;99.90;;;;;;5074163;28;20654;-71
2022/09/03 04:23:44;;;;;;;27.63;24.15;;;21.70;99.90;;;;;;5107728;28;20174;-71
2022/09/03 04:26:15;;;;;;;28.58;25.67;;;21.70;99.90;;;;;;5090835;28;20686;-71
2022/09/03 04:28:44;;;;;;;27.17;24.40;;;21.80;99.90;;;;;;5092179;28;20190;-71
2022/09/03 04:31:14;;;;;;;29.15;26.38;;;21.90;99.90;;;;;;5093025;28;20221;-71
2022/09/03 04:33:41;;;;;;;29.65;26.42;;;21.90;99.90;;;;;;5092239;28;20182;-71
2022/09/03 04:36:17;;;;;;;27.98;25.08;;;22.00;99.90;;;;;;5090928;28;20264;-71
2022/09/03 04:38:47;;;;;;;29.38;26.48;;;22.00;99.90;;;;;;5124577;27;20547;-71
2022/09/03 04:41:20;;;;;;;28.92;24.67;;;22.00;99.90;;;;;;5092416;28;20174;-71
2022/09/03 04:43:47;;;;;;;27.38;24.67;;;22.00;99.90;;;;;;5112268;28;20178;-71
2022/09/03 04:46:15;;;;;;;29.13;25.80;;;22.00;99.90;;;;;;5110714;28;20216;-71
2022/09/03 04:48:42;;;;;;;29.42;26.33;;;22.10;99.90;;;;;;5106290;28;20343;-71
2022/09/03 04:51:13;;;;;;;27.98;25.02;;;22.10;99.90;;;;;;5086541;28;20186;-71
2022/09/03 04:53:46;;;;;;;29.27;26.35;;;22.10;99.90;;;;;;5069952;28;20269;-71
2022/09/03 04:56:26;;;;;;;28.80;25.88;;;22.10;99.90;;;;;;5083299;28;20242;-71
2022/09/03 04:58:57;;;;;;;30.33;27.13;;;22.20;99.90;;;;;;5090858;28;20202;-71
2022/09/03 05:01:27;;;;;;;31.73;28.30;;;22.20;99.90;;;;;;5091388;28;20178;-71
2022/09/03 05:03:56;;;;;;;32.90;29.52;;;22.30;99.90;;;;;;5089866;28;20679;-71
2022/09/03 05:06:24;;;;;;;32.20;28.77;;;22.30;99.90;;;;;;5091509;28;20180;-71
2022/09/03 05:08:53;;;;;;;31.52;28.27;;;22.30;99.90;;;;;;5107026;28;20178;-71
2022/09/03 05:11:21;;;;;;;31.92;28.55;;;22.40;99.90;;;;;;5091429;28;20219;-71
2022/09/03 05:13:49;;;;;;;32.33;28.33;;;22.50;99.90;;;;;;5072454;28;20186;-71
2022/09/03 05:16:17;;;;;;;33.08;29.40;;;22.60;99.90;;;;;;5107115;28;20273;-71
2022/09/03 05:18:44;;;;;;;35.50;28.80;;;22.70;99.90;;;;;;5106366;28;20698;-71
2022/09/03 05:21:17;;;;;;;31.48;28.27;;;22.80;99.90;;;;;;5089610;28;20193;-70
2022/09/03 05:23:46;;;;;;;32.13;28.92;;;22.90;99.90;;;;;;5089836;28;20209;-71
2022/09/03 05:26:17;;;;;;;31.67;28.45;;;22.90;99.90;;;;;;5089648;28;20182;-71
2022/09/03 05:28:45;;;;;;;28.25;25.55;;;22.90;99.90;;;;;;5089891;28;20181;-71
2022/09/03 05:31:17;;;;;;;28.25;25.48;;;22.90;99.90;;;;;;5123805;27;20186;-70
2022/09/03 05:33:50;;;;;;;33.13;26.08;;;22.90;99.90;;;;;;5089618;28;20178;-71
2022/09/03 05:36:24;;;;;;;32.20;26.02;;;22.90;99.90;;;;;;5095631;28;20184;-70
2022/09/03 05:38:54;;;;;;;28.63;25.85;;;23.00;99.90;;;;;;5144320;27;20320;-71
2022/09/03 05:41:22;;;;;;;30.58;25.40;;;23.00;99.90;;;;;;5111727;28;20212;-70
2022/09/03 05:43:57;;;;;;;28.92;25.30;;;23.00;99.90;;;;;;5111498;28;20185;-71
2022/09/03 05:46:30;;;;;;;27.55;24.58;;;23.00;99.90;;;;;;5111770;28;20635;-70
2022/09/03 05:49:01;;;;;;;27.13;22.73;;;23.10;99.90;;;;;;5109822;28;20185;-70
2022/09/03 05:51:29;;;;;;;28.45;24.70;;;23.10;99.90;;;;;;5111445;28;20178;-71
2022/09/03 05:53:57;;;;;;;26.50;22.88;;;23.20;99.90;;;;;;5111419;28;20230;-70
2022/09/03 05:56:27;;;;;;;24.98;22.38;;;23.20;99.90;;;;;;5109782;28;20196;-70
2022/09/03 05:58:59;;;;;;;25.05;22.35;;;23.30;99.90;;;;;;5111134;28;20201;-70
2022/09/03 06:01:30;;;;;;;29.63;22.13;;;23.40;99.90;;;;;;5115483;27;20190;-70
2022/09/03 06:04:05;;;;;;;26.73;22.27;;;23.40;99.90;;;;;;5086181;28;20182;-70
2022/09/03 06:06:35;;;;;;;25.38;20.98;;;23.50;99.90;;;;;;5090970;28;20189;-70
2022/09/03 06:09:06;;;;;;;23.38;20.58;;;23.50;99.90;;;;;;5090267;28;20189;-70
2022/09/03 06:11:35;;;;;;;21.75;19.35;;;23.50;99.90;;;;;;5090571;28;20200;-70
2022/09/03 06:14:06;;;;;;;24.58;21.85;;;23.60;99.90;;;;;;5090498;28;20551;-70
2022/09/03 06:16:38;;;;;;;20.60;18.58;;;23.60;99.90;;;;;;5089355;28;20647;-70
2022/09/03 06:19:08;;;;;;;25.67;21.80;;;23.60;99.90;;;;;;5123108;27;20836;-70
2022/09/03 06:21:43;;;;;;;21.02;18.75;;;23.70;99.90;;;;;;5090692;28;20254;-70
2022/09/03 06:24:23;;;;;;;22.58;17.95;;;23.70;99.90;;;;;;5122848;27;20177;-70
2022/09/03 06:26:50;;;;;;;21.58;17.90;;;23.80;99.90;;;;;;5090783;28;20171;-70
2022/09/03 06:29:19;;;;;;;24.00;18.77;;;23.90;99.90;;;;;;5090080;28;20197;-70
2022/09/03 06:31:47;;;;;;;24.33;16.55;;;23.90;99.90;;;;;;5087076;28;20175;-70
2022/09/03 06:34:18;;;;;;;20.45;17.52;;;24.00;99.90;;;;;;5105784;28;20175;-70
2022/09/03 06:36:45;;;;;;;20.30;18.00;;;24.00;99.90;;;;;;5097545;28;20248;-70
2022/09/03 06:39:11;;;;;;;19.45;16.05;;;24.00;99.90;;;;;;5084158;28;20622;-70
2022/09/03 06:41:38;;;;;;;22.20;18.85;;;24.10;99.90;;;;;;5080036;28;20186;-71
2022/09/03 06:44:10;;;;;;;19.92;17.52;;;24.10;99.90;;;;;;5082270;28;20190;-70
2022/09/03 06:46:41;;;;;;;17.65;15.43;;;24.20;99.90;;;;;;5089568;28;20205;-70
2022/09/03 06:49:08;;;;;;;23.23;16.35;;;24.30;99.90;;;;;;5088393;28;20182;-70
2022/09/03 06:51:36;;;;;;;20.10;15.85;;;24.30;99.90;;;;;;5105146;28;20235;-70
2022/09/03 06:54:10;;;;;;;18.77;16.05;;;24.40;99.90;;;;;;5071198;28;20715;-70
2022/09/03 06:56:39;;;;;;;17.73;15.55;;;24.50;99.90;;;;;;5084376;28;20600;-70
2022/09/03 06:59:14;;;;;;;16.50;14.80;;;24.50;99.90;;;;;;5118820;27;20284;-70
2022/09/03 07:01:44;;;;;;;17.45;14.45;;;24.60;99.90;;;;;;5122256;27;20189;-70
2022/09/03 07:04:12;;;;;;;18.38;14.27;;;24.60;99.90;;;;;;5089388;28;20571;-71
2022/09/03 07:06:41;;;;;;;15.32;13.77;;;24.70;99.90;;;;;;5104740;28;20205;-70
2022/09/03 07:09:10;;;;;;;18.30;13.85;;;24.70;99.90;;;;;;5088912;28;20915;-70
2022/09/03 07:11:45;;;;;;;16.00;14.40;;;24.80;99.90;;;;;;5095162;28;20671;-70
2022/09/03 07:14:12;;;;;;;17.35;14.15;;;24.90;99.90;;;;;;5101528;28;20181;-70
2022/09/03 07:16:40;;;;;;;18.60;13.57;;;24.90;99.90;;;;;;5122300;27;20193;-70
2022/09/03 07:19:08;;;;;;;14.68;12.25;;;25.00;99.90;;;;;;5085950;28;20199;-69
2022/09/03 07:21:36;;;;;;;16.55;13.50;;;25.20;99.90;;;;;;5119451;27;20194;-70
2022/09/03 07:24:04;;;;;;;13.57;12.15;;;25.20;99.90;;;;;;5089476;28;20182;-70
2022/09/03 07:26:35;;;;;;;14.15;12.65;;;25.20;99.90;;;;;;5089049;28;20193;-70
2022/09/03 07:29:02;;;;;;;19.35;11.65;;;25.30;99.90;;;;;;5112192;28;20929;-70
2022/09/03 07:31:38;;;;;;;13.18;11.82;;;25.30;99.90;;;;;;5084512;28;20327;-70
2022/09/03 07:34:08;;;;;;;17.05;12.25;;;25.40;99.90;;;;;;5108650;28;20180;-70
2022/09/03 07:36:45;;;;;;;16.50;9.10;;;25.40;99.90;;;;;;5112791;28;20643;-70
2022/09/03 07:39:14;;;;;;;11.80;9.90;;;25.60;99.90;;;;;;5090431;28;20210;-70
2022/09/03 07:41:42;;;;;;;13.43;10.77;;;25.70;99.90;;;;;;5091555;28;20193;-70
2022/09/03 07:44:09;;;;;;;11.20;10.10;;;25.80;99.90;;;;;;5071671;28;20187;-71
2022/09/03 07:46:37;;;;;;;14.60;10.90;;;25.90;99.90;;;;;;5091279;28;20214;-70
2022/09/03 07:49:05;;;;;;;20.70;11.10;;;26.00;99.90;;;;;;5092697;28;20186;-71
2022/09/03 07:51:36;;;;;;;15.88;12.13;;;26.10;99.90;;;;;;5088676;28;20509;-70
2022/09/03 07:54:06;;;;;;;17.40;12.15;;;26.10;99.90;;;;;;5071416;28;20273;-70
2022/09/03 07:56:34;;;;;;;14.43;11.30;;;26.20;99.90;;;;;;5071767;28;20315;-70
2022/09/03 07:59:02;;;;;;;13.80;10.43;;;26.30;99.90;;;;;;5081896;28;20683;-70
2022/09/03 08:01:31;;;;;;;16.52;11.02;;;26.30;99.90;;;;;;5105106;28;20191;-69
2022/09/03 08:03:59;;;;;;;16.77;10.68;;;26.40;99.90;;;;;;5083545;28;20527;-70
2022/09/03 08:06:29;;;;;;;19.20;10.10;;;26.50;99.90;;;;;;5108358;28;20958;-69
2022/09/03 08:08:58;;;;;;;17.42;12.05;;;26.60;99.90;;;;;;5092513;28;20719;-70
2022/09/03 08:11:26;;;;;;;17.00;11.40;;;26.60;99.90;;;;;;5092970;28;20178;-70
2022/09/03 08:14:05;;;;;;;12.48;9.85;;;26.70;99.90;;;;;;5091473;28;20190;-69
2022/09/03 08:16:46;;;;;;;15.93;10.90;;;26.80;99.90;;;;;;5092936;28;20209;-70
2022/09/03 08:19:13;;;;;;;16.25;11.50;;;26.80;99.90;;;;;;5088572;28;20674;-70
2022/09/03 08:21:41;;;;;;;15.63;11.52;;;26.80;99.90;;;;;;5098898;28;20181;-70
2022/09/03 08:24:08;;;;;;;13.77;9.63;;;26.90;99.90;;;;;;5111905;28;20186;-69
2022/09/03 08:26:41;;;;;;;14.20;10.43;;;27.00;99.90;;;;;;5094895;28;20276;-70
2022/09/03 08:29:09;;;;;;;19.55;9.60;;;27.10;99.90;;;;;;5124390;27;20684;-70
2022/09/03 08:31:35;;;;;;;13.82;9.13;;;27.10;99.90;;;;;;5092616;28;20183;-69
2022/09/03 08:34:06;;;;;;;15.93;9.25;;;27.20;99.90;;;;;;5124985;27;20190;-70
2022/09/03 08:36:37;;;;;;;17.58;9.57;;;27.30;99.90;;;;;;5093013;28;20187;-69
2022/09/03 08:39:08;;;;;;;12.65;9.98;;;27.30;99.90;;;;;;5090820;28;20206;-70
2022/09/03 08:42:10;;;;;;;14.30;9.38;;;27.30;99.90;;;;;;5093477;28;20243;-69
2022/09/03 08:44:57;;;;;;;12.65;8.50;;;27.50;99.90;;;;;;5090666;28;20182;-69
2022/09/03 08:47:44;;;;;;;12.52;7.95;;;27.60;99.90;;;;;;5076243;28;20642;-70
2022/09/03 08:50:34;;;;;;;13.52;7.47;;;27.60;99.90;;;;;;5091984;28;20214;-69
2022/09/03 08:53:25;;;;;;;9.70;7.25;;;27.70;99.90;;;;;;5086657;28;20673;-69
2022/09/03 08:56:08;;;;;;;15.20;8.00;;;27.80;99.90;;;;;;5083495;28;20186;-69
2022/09/03 08:58:46;;;;;;;11.18;7.65;;;27.80;99.90;;;;;;5072830;28;20209;-70
2022/09/03 09:01:36;;;;;;;11.38;7.05;;;27.90;99.90;;;;;;5071498;28;20183;-69
2022/09/03 09:04:43;;;;;;;15.07;7.25;;;27.90;99.90;;;;;;5082681;28;20186;-69
2022/09/03 09:07:46;;;;;;;8.68;7.25;;;28.00;99.90;;;;;;5099826;28;20188;-69
2022/09/03 09:10:30;;;;;;;15.00;7.90;;;28.00;99.90;;;;;;5107896;28;20268;-69
2022/09/03 09:13:16;;;;;;;12.85;7.55;;;28.20;99.90;;;;;;5085822;28;20182;-70
2022/09/03 09:16:04;;;;;;;13.35;7.60;;;28.30;99.90;;;;;;5073078;28;20643;-70
2022/09/03 09:18:56;;;;;;;11.55;7.45;;;28.40;99.90;;;;;;5070844;28;20211;-70
2022/09/03 09:21:44;;;;;;;13.07;7.70;;;28.50;99.90;;;;;;5069087;28;20206;-70
2022/09/03 09:24:25;;;;;;;12.30;7.70;;;28.70;99.90;;;;;;5091357;28;20656;-70
2022/09/03 09:27:15;;;;;;;12.60;7.80;;;28.80;99.90;;;;;;5091835;28;20228;-69
2022/09/03 09:29:48;;;;;;;18.75;8.60;;;29.10;99.90;;;;;;5087307;28;20186;-70
2022/09/03 09:32:19;;;;;;;21.92;8.18;;;29.20;99.90;;;;;;5103627;28;20175;-70
2022/09/03 09:34:46;;;;;;;12.32;7.47;;;29.30;99.90;;;;;;5071229;28;20264;-70
2022/09/03 09:37:16;;;;;;;12.40;7.93;;;29.20;99.90;;;;;;5115776;27;20844;-70
2022/09/03 09:39:58;;;;;;;10.82;7.55;;;29.30;99.90;;;;;;5099265;28;20170;-70
2022/09/03 09:42:26;;;;;;;11.98;7.15;;;29.30;99.90;;;;;;5093269;28;20275;-69
2022/09/03 09:44:52;;;;;;;11.57;7.13;;;29.40;99.90;;;;;;5110012;28;20265;-69
2022/09/03 09:47:34;;;;;;;9.55;7.93;;;29.50;99.90;;;;;;5109911;28;20201;-70
2022/09/03 09:50:02;;;;;;;11.82;8.23;;;29.40;99.90;;;;;;5066970;28;20190;-69
2022/09/03 09:52:32;;;;;;;11.57;6.80;;;29.90;99.90;;;;;;5123798;27;20544;-69
2022/09/03 09:55:11;;;;;;;11.63;7.35;;;30.10;99.90;;;;;;5095215;28;20274;-69
2022/09/03 09:57:39;;;;;;;14.00;7.03;;;30.40;99.90;;;;;;5069928;28;20207;-70
2022/09/03 10:00:18;;;;;;;10.60;6.30;;;30.70;99.90;;;;;;5085024;28;20501;-69
2022/09/03 10:02:53;;;;;;;9.75;7.22;;;31.00;99.90;;;;;;5080228;28;20265;-69
2022/09/03 10:05:32;;;;;;;14.13;7.30;;;31.20;99.90;;;;;;5113531;27;20241;-69
2022/09/03 10:08:04;;;;;;;11.35;7.38;;;31.20;99.90;;;;;;5079982;28;20208;-69
2022/09/03 10:10:43;;;;;;;8.93;6.88;;;31.20;99.90;;;;;;5120410;27;20193;-70
2022/09/03 10:13:28;;;;;;;10.82;6.88;;;31.20;99.90;;;;;;5088386;28;20199;-70
2022/09/03 10:16:08;;;;;;;13.38;7.18;;;31.10;99.90;;;;;;5096567;28;20610;-70
2022/09/03 10:19:05;;;;;;;9.65;6.32;;;31.80;99.90;;;;;;5073211;28;20225;-70
2022/09/03 10:22:08;;;;;;;13.82;6.50;;;32.20;99.90;;;;;;5080089;28;20187;-70
2022/09/03 10:25:01;;;;;;;15.52;7.63;;;32.10;99.90;;;;;;5081222;28;20195;-70
2022/09/03 10:27:28;;;;;;;12.10;6.80;;;31.60;99.90;;;;;;5075088;28;20306;-70
2022/09/03 10:29:54;;;;;;;15.48;7.22;;;31.20;99.90;;;;;;5087008;28;20186;-70
2022/09/03 10:32:45;;;;;;;8.68;6.32;;;30.90;99.90;;;;;;5086582;28;20174;-70
2022/09/03 10:35:41;;;;;;;12.80;6.30;;;30.80;99.90;;;;;;5076179;28;20190;-70
2022/09/03 10:38:28;;;;;;;17.60;5.93;;;30.70;99.90;;;;;;5085843;28;20229;-70
2022/09/03 10:41:27;;;;;;;9.15;5.88;;;30.70;99.90;;;;;;5082516;28;20273;-70
2022/09/03 10:44:16;;;;;;;11.60;5.88;;;30.60;99.90;;;;;;5081190;28;20189;-70
2022/09/03 10:46:55;;;;;;;14.43;5.88;;;30.60;99.90;;;;;;5090070;28;20179;-70
2022/09/03 10:49:43;;;;;;;10.60;6.03;;;30.70;99.90;;;;;;5086134;28;20193;-70
2022/09/03 10:52:58;;;;;;;10.73;5.90;;;30.60;99.90;;;;;;5084498;28;20633;-69
2022/09/03 10:55:47;;;;;;;14.32;6.07;;;30.70;99.90;;;;;;5057079;28;20194;-70
2022/09/03 10:59:13;;;;;;;16.33;6.13;;;30.70;99.90;;;;;;5069858;28;20264;-70
2022/09/03 11:02:09;;;;;;;12.10;6.40;;;30.70;99.90;;;;;;5080116;28;20186;-70
2022/09/03 11:04:53;;;;;;;16.23;6.10;;;30.70;99.90;;;;;;5088134;28;20182;-70
2022/09/03 11:07:30;;;;;;;7.63;5.60;;;30.60;99.90;;;;;;5099814;28;20720;-71
2022/09/03 11:10:26;;;;;;;12.98;6.28;;;30.50;99.90;;;;;;5083705;28;20705;-70
2022/09/03 11:13:23;;;;;;;13.95;6.63;;;30.50;99.90;;;;;;5123393;27;20189;-71
2022/09/03 11:15:58;;;;;;;9.45;6.07;;;30.40;99.90;;;;;;5093970;28;20272;-70
2022/09/03 11:18:34;;;;;;;10.65;5.82;;;30.40;99.90;;;;;;5118097;27;20289;-70
2022/09/03 11:21:06;;;;;;;8.98;6.18;;;30.40;99.90;;;;;;5091198;28;20186;-70
2022/09/03 11:23:47;;;;;;;9.90;5.97;;;30.30;99.90;;;;;;5075513;28;20268;-70
2022/09/03 11:26:19;;;;;;;8.65;5.63;;;30.40;99.90;;;;;;5087545;28;20191;-69
2022/09/03 11:29:11;;;;;;;9.75;5.82;;;30.40;99.90;;;;;;5077138;28;20240;-69
2022/09/03 11:32:13;;;;;;;14.57;6.10;;;30.30;99.90;;;;;;5092312;28;20242;-69
2022/09/03 11:34:53;;;;;;;10.02;6.25;;;30.30;99.90;;;;;;5092049;28;20201;-70
2022/09/03 11:37:27;;;;;;;14.35;6.28;;;30.20;99.90;;;;;;5107753;28;20215;-70
2022/09/03 11:40:18;;;;;;;16.48;5.72;;;30.20;99.90;;;;;;5083849;28;20206;-69
2022/09/03 11:42:46;;;;;;;10.75;5.63;;;30.20;99.90;;;;;;5082803;28;20191;-69
2022/09/03 11:45:29;;;;;;;11.70;5.80;;;30.10;99.90;;;;;;5091067;28;20239;-69
2022/09/03 11:47:55;;;;;;;12.27;5.38;;;30.10;99.90;;;;;;5092759;28;20612;-69
2022/09/03 11:50:29;;;;;;;8.95;5.50;;;30.10;99.90;;;;;;5093337;28;20182;-70
2022/09/03 11:53:33;;;;;;;10.75;6.03;;;30.10;99.90;;;;;;5091878;28;20635;-70
2022/09/03 11:56:06;;;;;;;18.80;5.93;;;30.10;99.90;;;;;;5115649;27;20217;-70
2022/09/03 11:58:37;;;;;;;9.40;5.53;;;30.10;99.90;;;;;;5099393;28;20209;-70
2022/09/03 12:01:13;;;;;;;13.88;6.45;;;30.00;99.90;;;;;;5089944;28;20847;-70
2022/09/03 12:03:58;;;;;;;13.75;6.25;;;30.10;99.90;;;;;;5086444;28;20197;-70
2022/09/03 12:07:12;;;;;;;14.05;6.90;;;30.10;99.90;;;;;;5087485;28;20194;-70
2022/09/03 12:10:00;;;;;;;10.48;5.97;;;30.10;99.90;;;;;;5070931;28;20175;-71
2022/09/03 12:12:56;;;;;;;13.55;6.57;;;30.10;99.90;;;;;;5104695;28;20259;-70
2022/09/03 12:15:29;;;;;;;11.57;6.25;;;30.00;99.90;;;;;;5104901;28;20236;-70
2022/09/03 12:18:19;;;;;;;12.50;7.25;;;30.00;99.90;;;;;;5075946;28;20209;-70
2022/09/03 12:21:07;;;;;;;11.93;6.50;;;29.90;99.90;;;;;;5082799;28;20183;-70
2022/09/03 12:23:46;;;;;;;11.93;6.32;;;30.00;99.90;;;;;;5083703;28;20179;-70
2022/09/03 12:26:26;;;;;;;9.77;6.45;;;30.00;99.90;;;;;;5071537;28;20178;-69
2022/09/03 12:28:59;;;;;;;14.48;7.10;;;29.90;99.90;;;;;;5082192;28;20194;-69
2022/09/03 12:31:30;;;;;;;11.75;7.20;;;29.90;99.90;;;;;;5104837;28;20193;-70
2022/09/03 12:34:15;;;;;;;11.43;6.60;;;29.90;99.90;;;;;;5077073;28;20217;-69
2022/09/03 12:36:48;;;;;;;10.95;7.15;;;29.90;99.90;;;;;;5101887;28;20189;-69
2022/09/03 12:39:27;;;;;;;12.10;6.68;;;29.90;99.90;;;;;;5085611;28;20203;-70
2022/09/03 12:42:15;;;;;;;15.15;6.72;;;29.90;99.90;;;;;;5083072;28;20190;-71
2022/09/03 12:44:41;;;;;;;12.95;6.95;;;29.80;99.90;;;;;;5085249;28;20204;-70
2022/09/03 12:47:17;;;;;;;11.00;6.72;;;29.70;99.90;;;;;;5104050;28;20175;-71
2022/09/03 12:49:47;;;;;;;14.73;6.78;;;29.70;99.90;;;;;;5087598;28;20172;-70
2022/09/03 12:53:01;;;;;;;15.10;7.40;;;29.70;99.90;;;;;;5089726;28;20206;-70
2022/09/03 12:55:48;;;;;;;14.55;6.88;;;29.80;99.90;;;;;;5085787;28;20197;-70
2022/09/03 12:58:30;;;;;;;15.20;7.88;;;29.80;99.90;;;;;;5096869;28;20229;-70
2022/09/03 13:01:33;;;;;;;11.90;7.68;;;29.80;99.90;;;;;;5087033;28;20182;-70
2022/09/03 13:04:15;;;;;;;10.18;8.00;;;29.70;99.90;;;;;;5085548;28;20284;-71
2022/09/03 13:06:59;;;;;;;18.38;7.68;;;29.70;99.90;;;;;;5103644;28;20175;-70
2022/09/03 13:09:29;;;;;;;12.35;7.88;;;29.70;99.90;;;;;;5087192;28;20296;-70
2022/09/03 13:11:58;;;;;;;12.63;8.00;;;29.60;99.90;;;;;;5118586;27;20224;-70
2022/09/03 13:14:26;;;;;;;22.42;9.02;;;29.50;99.90;;;;;;5084145;28;20288;-68
2022/09/03 13:17:13;;;;;;;13.73;7.93;;;29.60;99.90;;;;;;5083485;28;20729;-70
2022/09/03 13:19:51;;;;;;;13.75;7.65;;;29.60;99.90;;;;;;5118117;27;20703;-70